»·PEaware :: N132KT KEKO-KWHP

N132KT :: KEKO-KWHP

FLIGHT INFORMATION

Flight Status: Arrived
Operator: Privately registered:
United States
More flights under this callsign
Pilot: Keith S. (1)
Aircraft: MITSUBISHI MU-2 MARQUISE
(MU2)
More flights by this aircraft type
Origin: KEKO Elko Regl
United States
Destination: KWHP Whiteman
United States
More flights between these airports :: More routes between these airports
Route: +KATTS Q164 KICHI LEAHI Q13 TUMBE FEYLA HEC PMD LYNXX VNY
File this flight plan on PilotEdge
Remarks:
Altitude:
(Current/Filed)
22,000ft
Speed:
(Current/Filed)
300kts
Departed: 16-May-18 10:16 AM
Arrived: 16-May-18 12:15 PM
Distance/Time
Traveled:
413nm/1:59
Distance/Time
To Go:
Arrived

Flight Plot

Page will automatically refresh every two minutes.

Flight plan parsing failed; only flown route is shown


Map Options




Map Legend


Flown Route
Filed Route
Departure Airport
Arrival Airport
Navaid (VOR, NDB)
Fix

Horizontal Profiles

Position Reports

Time Latitude Longitude Heading Altitude Ground
Speed
16-May-18 10:00 40.827660 -115.780489 14 5086ft 0kts
16-May-18 10:01 40.827660 -115.780489 14 5086ft 0kts
16-May-18 10:02 40.827660 -115.780489 14 5086ft 0kts
16-May-18 10:03 40.827660 -115.780489 14 5086ft 0kts
16-May-18 10:04 40.827660 -115.780489 14 5086ft 0kts
16-May-18 10:05 40.827660 -115.780489 14 5086ft 0kts
16-May-18 10:06 40.827660 -115.780489 14 5086ft 0kts
16-May-18 10:07 40.827660 -115.780489 14 5086ft 0kts
16-May-18 10:08 40.827660 -115.780489 14 5086ft 0kts
16-May-18 10:09 40.827674 -115.780490 359 5086ft 1kts
16-May-18 10:10 40.826256 -115.785501 248 5086ft 23kts
16-May-18 10:11 40.823424 -115.794976 247 5086ft 26kts
16-May-18 10:12 40.821644 -115.800145 162 5086ft 0kts
16-May-18 10:13 40.821630 -115.800139 165 5086ft 0kts
16-May-18 10:14 40.821630 -115.800139 165 5086ft 0kts
16-May-18 10:15 40.821442 -115.800071 163 5086ft 0kts
16-May-18 10:16 40.821070 -115.798901 69 5086ft 42kts
16-May-18 10:17 40.835023 -115.751580 72 6120ft 172kts
16-May-18 10:18 40.810834 -115.722228 205 8311ft 191kts
16-May-18 10:19 40.764833 -115.758997 205 10588ft 195kts
16-May-18 10:20 40.729201 -115.812761 237 12789ft 207kts
16-May-18 10:21 40.693647 -115.870941 199 14614ft 215kts
16-May-18 10:22 40.633270 -115.889961 192 16296ft 225kts
16-May-18 10:23 40.573246 -115.916212 200 18075ft 228kts
16-May-18 10:24 40.515664 -115.951957 207 19732ft 233kts
16-May-18 10:25 40.454950 -115.981779 194 21379ft 234kts
16-May-18 10:26 40.388801 -116.001714 196 22079ft 265kts
16-May-18 10:27 40.319768 -116.041204 203 22090ft 277kts
16-May-18 10:28 40.248128 -116.079554 200 22082ft 281kts
16-May-18 10:29 40.175087 -116.116220 200 22081ft 282kts
16-May-18 10:30 40.114206 -116.146619 200 22080ft 283kts
16-May-18 10:31 40.040882 -116.183151 200 22077ft 283kts
16-May-18 10:32 39.968028 -116.219368 200 22070ft 283kts
16-May-18 10:33 39.895580 -116.255305 200 22060ft 283kts
16-May-18 10:34 39.822183 -116.291625 200 22059ft 284kts
16-May-18 10:35 39.748705 -116.327901 200 22058ft 284kts
16-May-18 10:36 39.675244 -116.364089 200 22057ft 284kts
16-May-18 10:37 39.601740 -116.400212 200 22057ft 284kts
16-May-18 10:38 39.528404 -116.436175 200 22056ft 284kts
16-May-18 10:39 39.455426 -116.471879 200 22055ft 284kts
16-May-18 10:40 39.381798 -116.507826 200 22054ft 283kts
16-May-18 10:41 39.308642 -116.543457 200 22063ft 283kts
16-May-18 10:42 39.235262 -116.579119 200 22079ft 283kts
16-May-18 10:43 39.161721 -116.614775 200 22089ft 283kts
16-May-18 10:44 39.088673 -116.650116 199 22088ft 283kts
16-May-18 10:45 39.015756 -116.685300 200 22090ft 283kts
16-May-18 10:46 38.942705 -116.720467 200 22088ft 279kts
16-May-18 10:47 38.872298 -116.754303 201 22098ft 273kts
16-May-18 10:48 38.802060 -116.788021 201 22098ft 271kts
16-May-18 10:49 38.731704 -116.821694 201 22097ft 270kts
16-May-18 10:50 38.661618 -116.855167 201 22096ft 269kts
16-May-18 10:51 38.592093 -116.888311 200 22095ft 269kts
16-May-18 10:52 38.522008 -116.921665 200 22094ft 270kts
16-May-18 10:53 38.451665 -116.955049 199 22093ft 272kts
16-May-18 10:54 38.380927 -116.988549 199 22092ft 275kts
16-May-18 10:55 38.309069 -117.022506 198 22091ft 277kts
16-May-18 10:56 38.236406 -117.056771 198 22091ft 280kts
16-May-18 10:57 38.163257 -117.091194 197 22090ft 284kts
16-May-18 10:58 38.088884 -117.126113 197 22090ft 287kts
16-May-18 10:59 38.014149 -117.161120 197 22089ft 289kts
16-May-18 11:00 37.937291 -117.187477 184 22090ft 286kts
16-May-18 11:01 37.860704 -117.197824 184 22097ft 287kts
16-May-18 11:02 37.781273 -117.208655 184 22096ft 288kts
16-May-18 11:03 37.702518 -117.219374 184 22095ft 288kts
16-May-18 11:04 37.622926 -117.230185 184 22095ft 288kts
16-May-18 11:05 37.543451 -117.240957 184 22093ft 288kts
16-May-18 11:06 37.467498 -117.231538 148 22102ft 289kts
16-May-18 11:07 37.402000 -117.183085 156 22093ft 288kts
16-May-18 11:08 37.329819 -117.139348 156 22092ft 288kts
16-May-18 11:09 37.258167 -117.095892 156 22091ft 288kts
16-May-18 11:10 37.186358 -117.052451 157 22072ft 288kts
16-May-18 11:11 37.114695 -117.009197 158 22071ft 286kts
16-May-18 11:12 37.043132 -116.966033 161 22069ft 287kts
16-May-18 11:13 36.971222 -116.922878 162 22070ft 290kts
16-May-18 11:14 36.899678 -116.880072 162 22048ft 294kts
16-May-18 11:15 36.832585 -116.839911 162 22023ft 295kts
16-May-18 11:16 36.758500 -116.795624 162 22006ft 296kts
16-May-18 11:17 36.684337 -116.751407 162 22005ft 296kts
16-May-18 11:18 36.610341 -116.707398 162 22005ft 296kts
16-May-18 11:19 36.536321 -116.663476 162 22006ft 295kts
16-May-18 11:20 36.462236 -116.619603 162 22004ft 295kts
16-May-18 11:21 36.388408 -116.575972 162 22003ft 295kts
16-May-18 11:22 36.314271 -116.532244 162 22003ft 295kts
16-May-18 11:23 36.240610 -116.488865 162 22010ft 294kts
16-May-18 11:24 36.166768 -116.445469 162 22011ft 294kts
16-May-18 11:25 36.093072 -116.402251 162 22019ft 294kts
16-May-18 11:26 36.019578 -116.359239 162 22033ft 294kts
16-May-18 11:27 35.946735 -116.316707 162 22029ft 293kts
16-May-18 11:28 35.878377 -116.276549 162 22121ft 291kts
16-May-18 11:29 35.806620 -116.228181 160 22093ft 298kts
16-May-18 11:30 35.731005 -116.187236 165 22025ft 295kts
16-May-18 11:31 35.656238 -116.145965 161 22027ft 299kts
16-May-18 11:32 35.581489 -116.103019 164 22097ft 295kts
16-May-18 11:33 35.506200 -116.062075 170 22051ft 292kts
16-May-18 11:34 35.437429 -116.093279 215 22024ft 273kts
16-May-18 11:35 35.374698 -116.144795 206 22056ft 273kts
16-May-18 11:36 35.305532 -116.183253 207 22044ft 274kts
16-May-18 11:37 35.236318 -116.221762 207 22040ft 274kts
16-May-18 11:38 35.166955 -116.259598 204 22066ft 274kts
16-May-18 11:39 35.097796 -116.297577 206 22060ft 273kts
16-May-18 11:40 35.032772 -116.334179 206 22022ft 274kts
16-May-18 11:41 34.963350 -116.372195 206 22048ft 274kts
16-May-18 11:42 34.896804 -116.406369 205 22061ft 275kts
16-May-18 11:43 34.828431 -116.444268 209 22014ft 277kts
16-May-18 11:44 34.793981 -116.520301 257 22043ft 282kts
16-May-18 11:45 34.784706 -116.615607 256 22032ft 282kts
16-May-18 11:46 34.776972 -116.702196 259 22104ft 282kts
16-May-18 11:47 34.768795 -116.797730 256 22075ft 284kts
16-May-18 11:48 34.756505 -116.892591 254 21988ft 285kts
16-May-18 11:49 34.745846 -116.987490 257 22083ft 280kts
16-May-18 11:50 34.733934 -117.080976 256 22026ft 281kts
16-May-18 11:51 34.727880 -117.174986 257 22159ft 275kts
16-May-18 11:52 34.716221 -117.267162 259 22022ft 280kts
16-May-18 11:53 34.706021 -117.364708 261 20973ft 294kts
16-May-18 11:54 34.699893 -117.463422 259 19856ft 290kts
16-May-18 11:55 34.687282 -117.560171 259 18270ft 288kts
16-May-18 11:56 34.676253 -117.654627 259 16775ft 285kts
16-May-18 11:57 34.664187 -117.746738 259 15464ft 279kts
16-May-18 11:58 34.656505 -117.837847 261 14069ft 280kts
16-May-18 11:59 34.648624 -117.929517 260 12900ft 277kts
16-May-18 12:00 34.639282 -118.021485 261 12036ft 276kts
16-May-18 12:01 34.625091 -118.109567 249 12041ft 263kts
16-May-18 12:02 34.602151 -118.195572 255 10650ft 270kts
16-May-18 12:03 34.583584 -118.282459 253 9709ft 263kts
16-May-18 12:04 34.562579 -118.365530 254 8944ft 255kts
16-May-18 12:05 34.535216 -118.442314 226 8371ft 257kts
16-May-18 12:06 34.480493 -118.499301 223 7618ft 264kts
16-May-18 12:07 34.425460 -118.559171 224 6444ft 267kts
16-May-18 12:08 34.364842 -118.601391 180 5361ft 260kts
16-May-18 12:09 34.295740 -118.589845 172 5036ft 244kts
16-May-18 12:10 34.235747 -118.567034 130 4521ft 229kts
16-May-18 12:11 34.227115 -118.489652 89 3015ft 227kts
16-May-18 12:12 34.262720 -118.444888 340 2654ft 185kts
16-May-18 12:13 34.294949 -118.459671 102 2492ft 135kts
16-May-18 12:14 34.274591 -118.429627 140 1586ft 112kts
16-May-18 12:15 34.256062 -118.410096 138 1016ft 18kts
16-May-18 12:16 34.255660 -118.409001 328 1016ft 8kts
16-May-18 12:17 34.257702 -118.411140 319 1016ft 12kts
16-May-18 12:18 34.260346 -118.413913 319 1016ft 9kts
16-May-18 12:19 34.262355 -118.415155 45 1016ft 4kts
16-May-18 12:20 34.262785 -118.414592 39 1016ft 0kts
16-May-18 12:21 34.262785 -118.414592 39 1016ft 0kts
16-May-18 12:22 34.262785 -118.414592 39 1016ft 0kts

Navigation Log

Ident Type
Flight plan parsing failed, navigation log unavailable